sensor_id;sensor_type;location;lat;lon;timestamp;temperature;humidity
47861;HTU21D;33620;52.340;5.984;2022-07-22T00:01:42;18.00;83.27
47861;HTU21D;33620;52.340;5.984;2022-07-22T00:04:07;17.98;83.10
47861;HTU21D;33620;52.340;5.984;2022-07-22T00:06:32;17.95;83.31
47861;HTU21D;33620;52.340;5.984;2022-07-22T00:08:58;17.94;83.39
47861;HTU21D;33620;52.340;5.984;2022-07-22T00:11:23;17.97;83.56
47861;HTU21D;33620;52.340;5.984;2022-07-22T00:13:48;17.98;83.04
47861;HTU21D;33620;52.340;5.984;2022-07-22T00:16:14;17.94;82.91
47861;HTU21D;33620;52.340;5.984;2022-07-22T00:18:39;17.98;83.05
47861;HTU21D;33620;52.340;5.984;2022-07-22T00:21:05;18.00;83.05
47861;HTU21D;33620;52.340;5.984;2022-07-22T00:23:30;18.02;82.47
47861;HTU21D;33620;52.340;5.984;2022-07-22T00:25:56;17.97;82.85
47861;HTU21D;33620;52.340;5.984;2022-07-22T00:28:21;17.98;82.85
47861;HTU21D;33620;52.340;5.984;2022-07-22T00:30:47;18.00;83.04
47861;HTU21D;33620;52.340;5.984;2022-07-22T00:33:12;18.02;82.81
47861;HTU21D;33620;52.340;5.984;2022-07-22T00:35:37;18.03;82.71
47861;HTU21D;33620;52.340;5.984;2022-07-22T00:38:03;17.99;82.46
47861;HTU21D;33620;52.340;5.984;2022-07-22T00:40:28;17.99;82.30
47861;HTU21D;33620;52.340;5.984;2022-07-22T00:42:54;18.00;82.37
47861;HTU21D;33620;52.340;5.984;2022-07-22T00:45:19;18.02;82.84
47861;HTU21D;33620;52.340;5.984;2022-07-22T00:47:44;18.02;82.73
47861;HTU21D;33620;52.340;5.984;2022-07-22T00:50:10;18.00;82.53
47861;HTU21D;33620;52.340;5.984;2022-07-22T00:52:36;18.05;82.43
47861;HTU21D;33620;52.340;5.984;2022-07-22T00:55:04;18.00;82.17
47861;HTU21D;33620;52.340;5.984;2022-07-22T00:57:29;17.96;82.05
47861;HTU21D;33620;52.340;5.984;2022-07-22T00:59:55;17.94;81.84
47861;HTU21D;33620;52.340;5.984;2022-07-22T01:02:20;17.89;82.47
47861;HTU21D;33620;52.340;5.984;2022-07-22T01:04:46;17.90;82.58
47861;HTU21D;33620;52.340;5.984;2022-07-22T01:07:11;17.91;83.06
47861;HTU21D;33620;52.340;5.984;2022-07-22T01:09:37;17.92;83.09
47861;HTU21D;33620;52.340;5.984;2022-07-22T01:12:03;17.95;83.04
47861;HTU21D;33620;52.340;5.984;2022-07-22T01:14:29;17.91;82.89
47861;HTU21D;33620;52.340;5.984;2022-07-22T01:16:54;17.91;82.89
47861;HTU21D;33620;52.340;5.984;2022-07-22T01:19:20;17.88;83.01
47861;HTU21D;33620;52.340;5.984;2022-07-22T01:21:45;17.87;83.02
47861;HTU21D;33620;52.340;5.984;2022-07-22T01:24:11;17.87;83.12
47861;HTU21D;33620;52.340;5.984;2022-07-22T01:26:37;17.84;83.15
47861;HTU21D;33620;52.340;5.984;2022-07-22T01:29:02;17.83;83.09
47861;HTU21D;33620;52.340;5.984;2022-07-22T01:31:28;17.82;83.40
47861;HTU21D;33620;52.340;5.984;2022-07-22T01:33:54;17.83;83.20
47861;HTU21D;33620;52.340;5.984;2022-07-22T01:36:20;17.87;83.29
47861;HTU21D;33620;52.340;5.984;2022-07-22T01:38:45;17.85;82.71
47861;HTU21D;33620;52.340;5.984;2022-07-22T01:41:11;17.78;82.25
47861;HTU21D;33620;52.340;5.984;2022-07-22T01:43:36;17.78;82.49
47861;HTU21D;33620;52.340;5.984;2022-07-22T01:46:02;17.81;82.84
47861;HTU21D;33620;52.340;5.984;2022-07-22T01:48:29;17.85;82.75
47861;HTU21D;33620;52.340;5.984;2022-07-22T01:50:55;17.89;82.40
47861;HTU21D;33620;52.340;5.984;2022-07-22T01:53:20;17.88;82.10
47861;HTU21D;33620;52.340;5.984;2022-07-22T01:55:46;17.88;81.88
47861;HTU21D;33620;52.340;5.984;2022-07-22T01:58:11;17.89;81.30
47861;HTU21D;33620;52.340;5.984;2022-07-22T02:00:37;17.87;81.13
47861;HTU21D;33620;52.340;5.984;2022-07-22T02:03:03;17.85;81.34
47861;HTU21D;33620;52.340;5.984;2022-07-22T02:05:29;17.81;81.10
47861;HTU21D;33620;52.340;5.984;2022-07-22T02:07:59;17.78;81.08
47861;HTU21D;33620;52.340;5.984;2022-07-22T02:10:25;17.76;81.18
47861;HTU21D;33620;52.340;5.984;2022-07-22T02:12:50;17.76;81.70
47861;HTU21D;33620;52.340;5.984;2022-07-22T02:15:16;17.78;81.52
47861;HTU21D;33620;52.340;5.984;2022-07-22T02:17:41;17.80;81.33
47861;HTU21D;33620;52.340;5.984;2022-07-22T02:20:07;17.76;80.77
47861;HTU21D;33620;52.340;5.984;2022-07-22T02:22:33;17.69;80.88
47861;HTU21D;33620;52.340;5.984;2022-07-22T02:24:58;17.68;80.75
47861;HTU21D;33620;52.340;5.984;2022-07-22T02:27:23;17.65;80.81
47861;HTU21D;33620;52.340;5.984;2022-07-22T02:29:49;17.64;80.68
47861;HTU21D;33620;52.340;5.984;2022-07-22T02:32:14;17.64;80.68
47861;HTU21D;33620;52.340;5.984;2022-07-22T02:34:39;17.65;80.94
47861;HTU21D;33620;52.340;5.984;2022-07-22T02:37:05;17.72;81.16
47861;HTU21D;33620;52.340;5.984;2022-07-22T02:39:30;17.74;81.22
47861;HTU21D;33620;52.340;5.984;2022-07-22T02:41:55;17.74;81.33
47861;HTU21D;33620;52.340;5.984;2022-07-22T02:44:21;17.73;81.61
47861;HTU21D;33620;52.340;5.984;2022-07-22T02:46:46;17.72;81.98
47861;HTU21D;33620;52.340;5.984;2022-07-22T02:49:12;17.73;81.77
47861;HTU21D;33620;52.340;5.984;2022-07-22T02:51:37;17.70;81.55
47861;HTU21D;33620;52.340;5.984;2022-07-22T02:54:03;17.66;81.73
47861;HTU21D;33620;52.340;5.984;2022-07-22T02:56:28;17.67;82.16
47861;HTU21D;33620;52.340;5.984;2022-07-22T02:58:54;17.68;82.23
47861;HTU21D;33620;52.340;5.984;2022-07-22T03:01:20;17.69;81.78
47861;HTU21D;33620;52.340;5.984;2022-07-22T03:03:45;17.66;81.98
47861;HTU21D;33620;52.340;5.984;2022-07-22T03:06:11;17.64;82.17
47861;HTU21D;33620;52.340;5.984;2022-07-22T03:08:37;17.66;82.75
47861;HTU21D;33620;52.340;5.984;2022-07-22T03:11:03;17.68;82.73
47861;HTU21D;33620;52.340;5.984;2022-07-22T03:13:29;17.61;82.36
47861;HTU21D;33620;52.340;5.984;2022-07-22T03:15:54;17.54;82.65
47861;HTU21D;33620;52.340;5.984;2022-07-22T03:18:20;17.54;83.11
47861;HTU21D;33620;52.340;5.984;2022-07-22T03:20:45;17.59;83.59
47861;HTU21D;33620;52.340;5.984;2022-07-22T03:23:10;17.64;83.35
47861;HTU21D;33620;52.340;5.984;2022-07-22T03:25:36;17.68;82.91
47861;HTU21D;33620;52.340;5.984;2022-07-22T03:28:01;17.70;82.80
47861;HTU21D;33620;52.340;5.984;2022-07-22T03:30:27;17.72;82.83
47861;HTU21D;33620;52.340;5.984;2022-07-22T03:32:52;17.72;83.23
47861;HTU21D;33620;52.340;5.984;2022-07-22T03:35:18;17.72;83.37
47861;HTU21D;33620;52.340;5.984;2022-07-22T03:37:43;17.73;83.12
47861;HTU21D;33620;52.340;5.984;2022-07-22T03:40:09;17.72;82.67
47861;HTU21D;33620;52.340;5.984;2022-07-22T03:42:35;17.65;82.36
47861;HTU21D;33620;52.340;5.984;2022-07-22T03:45:00;17.66;82.58
47861;HTU21D;33620;52.340;5.984;2022-07-22T03:47:26;17.65;82.24
47861;HTU21D;33620;52.340;5.984;2022-07-22T03:49:52;17.64;82.56
47861;HTU21D;33620;52.340;5.984;2022-07-22T03:52:17;17.67;82.67
47861;HTU21D;33620;52.340;5.984;2022-07-22T03:54:43;17.67;82.39
47861;HTU21D;33620;52.340;5.984;2022-07-22T03:57:08;17.68;82.25
47861;HTU21D;33620;52.340;5.984;2022-07-22T03:59:34;17.66;81.91
47861;HTU21D;33620;52.340;5.984;2022-07-22T04:02:00;17.63;81.97
47861;HTU21D;33620;52.340;5.984;2022-07-22T04:04:25;17.60;82.56
47861;HTU21D;33620;52.340;5.984;2022-07-22T04:06:50;17.55;82.44
47861;HTU21D;33620;52.340;5.984;2022-07-22T04:09:19;17.54;82.77
47861;HTU21D;33620;52.340;5.984;2022-07-22T04:11:45;17.54;82.74
47861;HTU21D;33620;52.340;5.984;2022-07-22T04:14:10;17.51;83.25
47861;HTU21D;33620;52.340;5.984;2022-07-22T04:16:36;17.53;83.08
47861;HTU21D;33620;52.340;5.984;2022-07-22T04:19:03;17.50;83.43
47861;HTU21D;33620;52.340;5.984;2022-07-22T04:21:28;17.51;83.42
47861;HTU21D;33620;52.340;5.984;2022-07-22T04:23:55;17.52;83.66
47861;HTU21D;33620;52.340;5.984;2022-07-22T04:26:20;17.51;83.43
47861;HTU21D;33620;52.340;5.984;2022-07-22T04:28:45;17.48;83.49
47861;HTU21D;33620;52.340;5.984;2022-07-22T04:31:11;17.51;83.69
47861;HTU21D;33620;52.340;5.984;2022-07-22T04:33:37;17.55;83.65
47861;HTU21D;33620;52.340;5.984;2022-07-22T04:36:02;17.52;83.54
47861;HTU21D;33620;52.340;5.984;2022-07-22T04:38:28;17.52;83.82
47861;HTU21D;33620;52.340;5.984;2022-07-22T04:40:53;17.51;83.55
47861;HTU21D;33620;52.340;5.984;2022-07-22T04:43:19;17.54;83.71
47861;HTU21D;33620;52.340;5.984;2022-07-22T04:45:44;17.58;83.35
47861;HTU21D;33620;52.340;5.984;2022-07-22T04:48:09;17.59;83.36
47861;HTU21D;33620;52.340;5.984;2022-07-22T04:50:38;17.58;83.25
47861;HTU21D;33620;52.340;5.984;2022-07-22T04:53:03;17.54;83.20
47861;HTU21D;33620;52.340;5.984;2022-07-22T04:55:29;17.55;83.26
47861;HTU21D;33620;52.340;5.984;2022-07-22T04:57:54;17.51;83.30
47861;HTU21D;33620;52.340;5.984;2022-07-22T05:00:20;17.46;83.77
47861;HTU21D;33620;52.340;5.984;2022-07-22T05:02:46;17.45;83.44
47861;HTU21D;33620;52.340;5.984;2022-07-22T05:05:11;17.43;83.86
47861;HTU21D;33620;52.340;5.984;2022-07-22T05:07:37;17.44;83.92
47861;HTU21D;33620;52.340;5.984;2022-07-22T05:10:03;17.41;83.74
47861;HTU21D;33620;52.340;5.984;2022-07-22T05:12:28;17.43;83.87
47861;HTU21D;33620;52.340;5.984;2022-07-22T05:14:54;17.44;83.85
47861;HTU21D;33620;52.340;5.984;2022-07-22T05:17:19;17.45;83.39
47861;HTU21D;33620;52.340;5.984;2022-07-22T05:19:44;17.44;83.73
47861;HTU21D;33620;52.340;5.984;2022-07-22T05:22:10;17.46;83.32
47861;HTU21D;33620;52.340;5.984;2022-07-22T05:24:35;17.44;83.34
47861;HTU21D;33620;52.340;5.984;2022-07-22T05:27:01;17.41;83.35
47861;HTU21D;33620;52.340;5.984;2022-07-22T05:29:27;17.46;82.81
47861;HTU21D;33620;52.340;5.984;2022-07-22T05:31:52;17.44;82.65
47861;HTU21D;33620;52.340;5.984;2022-07-22T05:34:18;17.44;83.02
47861;HTU21D;33620;52.340;5.984;2022-07-22T05:36:43;17.49;82.71
47861;HTU21D;33620;52.340;5.984;2022-07-22T05:39:08;17.48;81.53
47861;HTU21D;33620;52.340;5.984;2022-07-22T05:41:34;17.45;81.93
47861;HTU21D;33620;52.340;5.984;2022-07-22T05:44:00;17.48;82.48
47861;HTU21D;33620;52.340;5.984;2022-07-22T05:46:25;17.50;82.20
47861;HTU21D;33620;52.340;5.984;2022-07-22T05:48:50;17.45;81.96
47861;HTU21D;33620;52.340;5.984;2022-07-22T05:51:16;17.43;81.99
47861;HTU21D;33620;52.340;5.984;2022-07-22T05:53:42;17.41;82.09
47861;HTU21D;33620;52.340;5.984;2022-07-22T05:56:08;17.47;82.07
47861;HTU21D;33620;52.340;5.984;2022-07-22T05:58:35;17.46;81.81
47861;HTU21D;33620;52.340;5.984;2022-07-22T06:01:01;17.39;81.25
47861;HTU21D;33620;52.340;5.984;2022-07-22T06:03:26;17.38;81.75
47861;HTU21D;33620;52.340;5.984;2022-07-22T06:05:51;17.45;82.48
47861;HTU21D;33620;52.340;5.984;2022-07-22T06:08:17;17.48;82.07
47861;HTU21D;33620;52.340;5.984;2022-07-22T06:10:42;17.50;82.13
47861;HTU21D;33620;52.340;5.984;2022-07-22T06:13:08;17.52;81.95
47861;HTU21D;33620;52.340;5.984;2022-07-22T06:15:33;17.54;82.16
47861;HTU21D;33620;52.340;5.984;2022-07-22T06:17:58;17.53;81.85
47861;HTU21D;33620;52.340;5.984;2022-07-22T06:20:24;17.53;82.13
47861;HTU21D;33620;52.340;5.984;2022-07-22T06:22:49;17.53;81.59
47861;HTU21D;33620;52.340;5.984;2022-07-22T06:25:14;17.49;81.46
47861;HTU21D;33620;52.340;5.984;2022-07-22T06:27:40;17.44;81.68
47861;HTU21D;33620;52.340;5.984;2022-07-22T06:30:05;17.41;81.39
47861;HTU21D;33620;52.340;5.984;2022-07-22T06:32:32;17.35;81.59
47861;HTU21D;33620;52.340;5.984;2022-07-22T06:34:57;17.37;82.02
47861;HTU21D;33620;52.340;5.984;2022-07-22T06:37:22;17.45;82.39
47861;HTU21D;33620;52.340;5.984;2022-07-22T06:39:48;17.40;81.66
47861;HTU21D;33620;52.340;5.984;2022-07-22T06:42:14;17.45;81.68
47861;HTU21D;33620;52.340;5.984;2022-07-22T06:44:39;17.45;80.79
47861;HTU21D;33620;52.340;5.984;2022-07-22T06:47:04;17.43;81.09
47861;HTU21D;33620;52.340;5.984;2022-07-22T06:49:30;17.46;80.42
47861;HTU21D;33620;52.340;5.984;2022-07-22T06:51:56;17.48;80.36
47861;HTU21D;33620;52.340;5.984;2022-07-22T06:54:21;17.56;80.79
47861;HTU21D;33620;52.340;5.984;2022-07-22T06:56:46;17.62;80.75
47861;HTU21D;33620;52.340;5.984;2022-07-22T06:59:12;17.69;80.75
47861;HTU21D;33620;52.340;5.984;2022-07-22T07:01:37;17.76;80.62
47861;HTU21D;33620;52.340;5.984;2022-07-22T07:04:03;17.82;80.72
47861;HTU21D;33620;52.340;5.984;2022-07-22T07:06:28;17.89;80.72
47861;HTU21D;33620;52.340;5.984;2022-07-22T07:08:54;17.93;80.35
47861;HTU21D;33620;52.340;5.984;2022-07-22T07:11:19;17.90;78.45
47861;HTU21D;33620;52.340;5.984;2022-07-22T07:13:45;17.90;78.21
47861;HTU21D;33620;52.340;5.984;2022-07-22T07:16:10;17.94;78.54
47861;HTU21D;33620;52.340;5.984;2022-07-22T07:18:35;17.96;78.58
47861;HTU21D;33620;52.340;5.984;2022-07-22T07:21:03;18.00;79.09
47861;HTU21D;33620;52.340;5.984;2022-07-22T07:23:29;18.00;79.16
47861;HTU21D;33620;52.340;5.984;2022-07-22T07:25:54;18.07;79.21
47861;HTU21D;33620;52.340;5.984;2022-07-22T07:28:20;18.10;78.54
47861;HTU21D;33620;52.340;5.984;2022-07-22T07:30:45;18.15;77.56
47861;HTU21D;33620;52.340;5.984;2022-07-22T07:33:11;18.17;77.41
47861;HTU21D;33620;52.340;5.984;2022-07-22T07:35:39;18.19;77.57
47861;HTU21D;33620;52.340;5.984;2022-07-22T07:38:05;18.21;77.28
47861;HTU21D;33620;52.340;5.984;2022-07-22T07:40:30;18.23;76.78
47861;HTU21D;33620;52.340;5.984;2022-07-22T07:42:56;18.20;75.72
47861;HTU21D;33620;52.340;5.984;2022-07-22T07:45:21;18.18;76.18
47861;HTU21D;33620;52.340;5.984;2022-07-22T07:47:47;18.21;75.44
47861;HTU21D;33620;52.340;5.984;2022-07-22T07:50:13;18.23;75.35
47861;HTU21D;33620;52.340;5.984;2022-07-22T07:52:40;18.14;74.60
47861;HTU21D;33620;52.340;5.984;2022-07-22T07:55:06;18.21;75.15
47861;HTU21D;33620;52.340;5.984;2022-07-22T07:57:32;18.28;75.18
47861;HTU21D;33620;52.340;5.984;2022-07-22T07:59:57;18.34;75.08
47861;HTU21D;33620;52.340;5.984;2022-07-22T08:02:23;18.34;74.46
47861;HTU21D;33620;52.340;5.984;2022-07-22T08:04:48;18.42;74.31
47861;HTU21D;33620;52.340;5.984;2022-07-22T08:07:14;18.44;73.62
47861;HTU21D;33620;52.340;5.984;2022-07-22T08:09:40;18.53;74.70
47861;HTU21D;33620;52.340;5.984;2022-07-22T08:12:06;18.58;74.54
47861;HTU21D;33620;52.340;5.984;2022-07-22T08:14:31;18.65;74.09
47861;HTU21D;33620;52.340;5.984;2022-07-22T08:16:57;18.59;72.35
47861;HTU21D;33620;52.340;5.984;2022-07-22T08:19:23;18.61;73.45
47861;HTU21D;33620;52.340;5.984;2022-07-22T08:21:49;18.63;73.55
47861;HTU21D;33620;52.340;5.984;2022-07-22T08:24:14;18.68;73.90
47861;HTU21D;33620;52.340;5.984;2022-07-22T08:26:40;18.76;73.89
47861;HTU21D;33620;52.340;5.984;2022-07-22T08:29:05;18.81;73.16
47861;HTU21D;33620;52.340;5.984;2022-07-22T08:31:33;18.85;73.25
47861;HTU21D;33620;52.340;5.984;2022-07-22T08:34:00;18.85;73.51
47861;HTU21D;33620;52.340;5.984;2022-07-22T08:36:26;18.83;73.44
47861;HTU21D;33620;52.340;5.984;2022-07-22T08:38:52;18.78;73.33
47861;HTU21D;33620;52.340;5.984;2022-07-22T08:41:18;18.78;73.83
47861;HTU21D;33620;52.340;5.984;2022-07-22T08:43:45;18.69;72.44
47861;HTU21D;33620;52.340;5.984;2022-07-22T08:46:12;18.69;73.64
47861;HTU21D;33620;52.340;5.984;2022-07-22T08:48:38;18.59;70.92
47861;HTU21D;33620;52.340;5.984;2022-07-22T08:51:04;18.53;70.86
47861;HTU21D;33620;52.340;5.984;2022-07-22T08:53:30;18.50;70.66
47861;HTU21D;33620;52.340;5.984;2022-07-22T08:55:55;18.50;71.00
47861;HTU21D;33620;52.340;5.984;2022-07-22T08:58:21;18.48;70.32
47861;HTU21D;33620;52.340;5.984;2022-07-22T09:00:46;18.36;70.55
47861;HTU21D;33620;52.340;5.984;2022-07-22T09:03:23;18.38;71.95
47861;HTU21D;33620;52.340;5.984;2022-07-22T09:05:51;18.40;71.79
47861;HTU21D;33620;52.340;5.984;2022-07-22T09:08:17;18.48;72.53
47861;HTU21D;33620;52.340;5.984;2022-07-22T09:10:43;18.49;72.00
47861;HTU21D;33620;52.340;5.984;2022-07-22T09:13:09;18.48;71.07
47861;HTU21D;33620;52.340;5.984;2022-07-22T09:15:38;18.53;71.63
47861;HTU21D;33620;52.340;5.984;2022-07-22T09:18:06;18.55;71.30
47861;HTU21D;33620;52.340;5.984;2022-07-22T09:20:33;18.47;70.41
47861;HTU21D;33620;52.340;5.984;2022-07-22T09:22:59;18.42;71.06
47861;HTU21D;33620;52.340;5.984;2022-07-22T09:30:31;18.43;70.26
47861;HTU21D;33620;52.340;5.984;2022-07-22T09:32:56;18.39;68.66
47861;HTU21D;33620;52.340;5.984;2022-07-22T09:35:22;18.38;70.71
47861;HTU21D;33620;52.340;5.984;2022-07-22T09:37:58;18.40;70.10
47861;HTU21D;33620;52.340;5.984;2022-07-22T09:40:28;18.40;70.27
47861;HTU21D;33620;52.340;5.984;2022-07-22T09:42:59;18.43;70.84
47861;HTU21D;33620;52.340;5.984;2022-07-22T09:45:28;18.46;70.46
47861;HTU21D;33620;52.340;5.984;2022-07-22T09:47:55;18.46;69.71
47861;HTU21D;33620;52.340;5.984;2022-07-22T09:50:27;18.51;70.96
47861;HTU21D;33620;52.340;5.984;2022-07-22T09:52:54;18.59;70.48
47861;HTU21D;33620;52.340;5.984;2022-07-22T09:55:21;18.64;69.56
47861;HTU21D;33620;52.340;5.984;2022-07-22T09:57:48;18.71;71.11
47861;HTU21D;33620;52.340;5.984;2022-07-22T10:00:15;18.63;68.56
47861;HTU21D;33620;52.340;5.984;2022-07-22T10:05:23;18.62;67.93
47861;HTU21D;33620;52.340;5.984;2022-07-22T10:07:49;18.62;69.67
47861;HTU21D;33620;52.340;5.984;2022-07-22T10:10:18;18.63;69.11
47861;HTU21D;33620;52.340;5.984;2022-07-22T10:12:45;18.65;69.10
47861;HTU21D;33620;52.340;5.984;2022-07-22T10:15:13;18.72;70.52
47861;HTU21D;33620;52.340;5.984;2022-07-22T10:17:43;18.78;70.19
47861;HTU21D;33620;52.340;5.984;2022-07-22T10:20:11;18.82;69.79
47861;HTU21D;33620;52.340;5.984;2022-07-22T10:25:06;18.91;69.94
47861;HTU21D;33620;52.340;5.984;2022-07-22T10:30:10;18.98;69.60
47861;HTU21D;33620;52.340;5.984;2022-07-22T10:32:35;18.97;68.62
47861;HTU21D;33620;52.340;5.984;2022-07-22T10:45:38;19.02;68.84
47861;HTU21D;33620;52.340;5.984;2022-07-22T10:48:09;18.98;67.17
47861;HTU21D;33620;52.340;5.984;2022-07-22T10:53:01;18.97;67.68
47861;HTU21D;33620;52.340;5.984;2022-07-22T10:55:27;18.96;67.74
47861;HTU21D;33620;52.340;5.984;2022-07-22T10:57:55;19.07;67.68
47861;HTU21D;33620;52.340;5.984;2022-07-22T11:00:20;19.18;67.85
47861;HTU21D;33620;52.340;5.984;2022-07-22T11:02:46;19.24;66.85
47861;HTU21D;33620;52.340;5.984;2022-07-22T11:05:12;19.29;67.01
47861;HTU21D;33620;52.340;5.984;2022-07-22T11:07:45;19.29;65.60
47861;HTU21D;33620;52.340;5.984;2022-07-22T11:10:14;19.31;65.85
47861;HTU21D;33620;52.340;5.984;2022-07-22T11:12:40;19.38;66.85
47861;HTU21D;33620;52.340;5.984;2022-07-22T11:15:07;19.42;67.27
47861;HTU21D;33620;52.340;5.984;2022-07-22T11:17:33;19.48;68.31
47861;HTU21D;33620;52.340;5.984;2022-07-22T11:20:03;19.44;66.75
47861;HTU21D;33620;52.340;5.984;2022-07-22T11:22:29;19.45;67.26
47861;HTU21D;33620;52.340;5.984;2022-07-22T11:24:56;19.48;66.36
47861;HTU21D;33620;52.340;5.984;2022-07-22T11:27:22;19.36;65.46
47861;HTU21D;33620;52.340;5.984;2022-07-22T11:29:49;19.30;65.46
47861;HTU21D;33620;52.340;5.984;2022-07-22T11:32:15;19.35;66.65
47861;HTU21D;33620;52.340;5.984;2022-07-22T11:34:43;19.41;66.99
47861;HTU21D;33620;52.340;5.984;2022-07-22T11:37:17;19.47;66.53
47861;HTU21D;33620;52.340;5.984;2022-07-22T11:39:43;19.46;66.57
47861;HTU21D;33620;52.340;5.984;2022-07-22T11:42:09;19.43;65.21
47861;HTU21D;33620;52.340;5.984;2022-07-22T11:44:36;19.53;65.47
47861;HTU21D;33620;52.340;5.984;2022-07-22T11:47:03;19.57;64.91
47861;HTU21D;33620;52.340;5.984;2022-07-22T11:49:31;19.62;64.88
47861;HTU21D;33620;52.340;5.984;2022-07-22T11:51:59;19.65;64.25
47861;HTU21D;33620;52.340;5.984;2022-07-22T11:54:24;19.69;65.01
47861;HTU21D;33620;52.340;5.984;2022-07-22T11:56:50;19.76;64.10
47861;HTU21D;33620;52.340;5.984;2022-07-22T11:59:16;19.89;65.62
47861;HTU21D;33620;52.340;5.984;2022-07-22T12:01:43;19.96;62.12
47861;HTU21D;33620;52.340;5.984;2022-07-22T12:04:27;20.06;63.78
47861;HTU21D;33620;52.340;5.984;2022-07-22T12:06:55;20.19;63.37
47861;HTU21D;33620;52.340;5.984;2022-07-22T12:09:24;20.22;62.76
47861;HTU21D;33620;52.340;5.984;2022-07-22T12:11:52;20.30;62.58
47861;HTU21D;33620;52.340;5.984;2022-07-22T12:14:29;20.33;61.40
47861;HTU21D;33620;52.340;5.984;2022-07-22T12:16:59;20.35;60.83
47861;HTU21D;33620;52.340;5.984;2022-07-22T12:19:26;20.43;61.76
47861;HTU21D;33620;52.340;5.984;2022-07-22T12:22:21;20.63;62.03
47861;HTU21D;33620;52.340;5.984;2022-07-22T12:24:58;20.72;60.31
47861;HTU21D;33620;52.340;5.984;2022-07-22T12:27:24;20.68;60.28
47861;HTU21D;33620;52.340;5.984;2022-07-22T12:29:49;20.72;61.83
47861;HTU21D;33620;52.340;5.984;2022-07-22T12:32:24;20.75;59.76
47861;HTU21D;33620;52.340;5.984;2022-07-22T12:34:59;20.75;60.72
47861;HTU21D;33620;52.340;5.984;2022-07-22T12:37:31;20.79;61.21
47861;HTU21D;33620;52.340;5.984;2022-07-22T12:40:00;20.75;59.78
47861;HTU21D;33620;52.340;5.984;2022-07-22T12:42:31;20.73;60.23
47861;HTU21D;33620;52.340;5.984;2022-07-22T12:45:09;20.59;60.18
47861;HTU21D;33620;52.340;5.984;2022-07-22T12:47:54;20.58;61.17
47861;HTU21D;33620;52.340;5.984;2022-07-22T12:50:30;20.63;60.89
47861;HTU21D;33620;52.340;5.984;2022-07-22T12:55:23;20.66;61.99
47861;HTU21D;33620;52.340;5.984;2022-07-22T12:57:48;20.72;61.20
47861;HTU21D;33620;52.340;5.984;2022-07-22T13:00:22;20.80;61.00
47861;HTU21D;33620;52.340;5.984;2022-07-22T13:02:48;20.79;60.86
47861;HTU21D;33620;52.340;5.984;2022-07-22T13:05:14;20.87;60.58
47861;HTU21D;33620;52.340;5.984;2022-07-22T13:07:40;20.92;59.70
47861;HTU21D;33620;52.340;5.984;2022-07-22T13:10:06;20.85;58.41
47861;HTU21D;33620;52.340;5.984;2022-07-22T13:12:32;20.80;58.77
47861;HTU21D;33620;52.340;5.984;2022-07-22T13:14:57;20.80;59.15
47861;HTU21D;33620;52.340;5.984;2022-07-22T13:17:22;20.84;58.63
47861;HTU21D;33620;52.340;5.984;2022-07-22T13:19:48;20.77;58.12
47861;HTU21D;33620;52.340;5.984;2022-07-22T13:22:13;20.84;59.13
47861;HTU21D;33620;52.340;5.984;2022-07-22T13:24:38;20.91;57.71
47861;HTU21D;33620;52.340;5.984;2022-07-22T13:27:04;20.94;59.32
47861;HTU21D;33620;52.340;5.984;2022-07-22T13:29:29;20.95;58.24
47861;HTU21D;33620;52.340;5.984;2022-07-22T13:31:54;20.89;57.90
47861;HTU21D;33620;52.340;5.984;2022-07-22T13:34:20;20.88;58.91
47861;HTU21D;33620;52.340;5.984;2022-07-22T13:36:45;20.76;58.59
47861;HTU21D;33620;52.340;5.984;2022-07-22T13:39:10;20.79;59.96
47861;HTU21D;33620;52.340;5.984;2022-07-22T13:41:36;20.83;59.55
47861;HTU21D;33620;52.340;5.984;2022-07-22T13:44:01;20.87;60.05
47861;HTU21D;33620;52.340;5.984;2022-07-22T13:46:27;20.92;60.10
47861;HTU21D;33620;52.340;5.984;2022-07-22T13:48:52;21.01;60.02
47861;HTU21D;33620;52.340;5.984;2022-07-22T13:51:18;21.04;59.92
47861;HTU21D;33620;52.340;5.984;2022-07-22T13:53:43;21.02;60.31
47861;HTU21D;33620;52.340;5.984;2022-07-22T13:56:10;21.03;61.50
47861;HTU21D;33620;52.340;5.984;2022-07-22T13:58:37;20.98;62.29
47861;HTU21D;33620;52.340;5.984;2022-07-22T14:01:02;20.87;61.33
47861;HTU21D;33620;52.340;5.984;2022-07-22T14:03:28;20.95;62.52
47861;HTU21D;33620;52.340;5.984;2022-07-22T14:05:54;21.17;62.65
47861;HTU21D;33620;52.340;5.984;2022-07-22T14:08:19;21.31;61.50
47861;HTU21D;33620;52.340;5.984;2022-07-22T14:10:45;21.39;60.84
47861;HTU21D;33620;52.340;5.984;2022-07-22T14:13:10;21.45;62.02
47861;HTU21D;33620;52.340;5.984;2022-07-22T14:15:37;21.37;60.46
47861;HTU21D;33620;52.340;5.984;2022-07-22T14:18:02;21.30;61.42
47861;HTU21D;33620;52.340;5.984;2022-07-22T14:20:30;21.16;59.89
47861;HTU21D;33620;52.340;5.984;2022-07-22T14:22:55;21.02;61.11
47861;HTU21D;33620;52.340;5.984;2022-07-22T14:25:21;20.95;61.18
47861;HTU21D;33620;52.340;5.984;2022-07-22T14:27:46;20.87;61.72
47861;HTU21D;33620;52.340;5.984;2022-07-22T14:30:12;20.91;60.96
47861;HTU21D;33620;52.340;5.984;2022-07-22T14:32:37;20.95;61.60
47861;HTU21D;33620;52.340;5.984;2022-07-22T14:35:03;20.99;61.83
47861;HTU21D;33620;52.340;5.984;2022-07-22T14:37:31;20.93;61.50
47861;HTU21D;33620;52.340;5.984;2022-07-22T14:39:56;20.87;61.42
47861;HTU21D;33620;52.340;5.984;2022-07-22T14:42:21;20.90;61.83
47861;HTU21D;33620;52.340;5.984;2022-07-22T14:44:47;20.92;60.38
47861;HTU21D;33620;52.340;5.984;2022-07-22T14:47:12;20.87;61.35
47861;HTU21D;33620;52.340;5.984;2022-07-22T14:49:37;20.88;61.05
47861;HTU21D;33620;52.340;5.984;2022-07-22T14:52:03;20.85;60.66
47861;HTU21D;33620;52.340;5.984;2022-07-22T14:54:28;20.79;60.77
47861;HTU21D;33620;52.340;5.984;2022-07-22T14:56:54;20.79;61.44
47861;HTU21D;33620;52.340;5.984;2022-07-22T14:59:20;20.72;61.54
47861;HTU21D;33620;52.340;5.984;2022-07-22T15:01:50;20.73;61.12
47861;HTU21D;33620;52.340;5.984;2022-07-22T15:04:16;20.73;61.09
47861;HTU21D;33620;52.340;5.984;2022-07-22T15:06:41;20.78;61.86
47861;HTU21D;33620;52.340;5.984;2022-07-22T15:09:06;20.75;61.17
47861;HTU21D;33620;52.340;5.984;2022-07-22T15:11:32;20.84;61.76
47861;HTU21D;33620;52.340;5.984;2022-07-22T15:13:57;20.92;61.06
47861;HTU21D;33620;52.340;5.984;2022-07-22T15:16:22;20.94;61.67
47861;HTU21D;33620;52.340;5.984;2022-07-22T15:18:48;20.94;60.44
47861;HTU21D;33620;52.340;5.984;2022-07-22T15:21:13;20.90;60.20
47861;HTU21D;33620;52.340;5.984;2022-07-22T15:23:39;20.94;60.93
47861;HTU21D;33620;52.340;5.984;2022-07-22T15:26:04;21.10;62.02
47861;HTU21D;33620;52.340;5.984;2022-07-22T15:28:30;21.17;61.15
47861;HTU21D;33620;52.340;5.984;2022-07-22T15:30:56;21.25;61.29
47861;HTU21D;33620;52.340;5.984;2022-07-22T15:33:22;21.29;61.33
47861;HTU21D;33620;52.340;5.984;2022-07-22T15:35:47;21.32;60.60
47861;HTU21D;33620;52.340;5.984;2022-07-22T15:38:13;21.33;60.24